sensor_id;sensor_type;location;lat;lon;timestamp;temperature;humidity
6421;DHT22;3243;50.958;7.012;2022-12-07T00:03:44;5.70;99.90
6421;DHT22;3243;50.958;7.012;2022-12-07T00:06:14;5.70;99.90
6421;DHT22;3243;50.958;7.012;2022-12-07T00:08:43;5.70;99.90
6421;DHT22;3243;50.958;7.012;2022-12-07T00:11:19;5.70;99.90
6421;DHT22;3243;50.958;7.012;2022-12-07T00:13:47;5.90;99.90
6421;DHT22;3243;50.958;7.012;2022-12-07T00:16:18;5.70;99.90
6421;DHT22;3243;50.958;7.012;2022-12-07T00:18:46;5.40;99.90
6421;DHT22;3243;50.958;7.012;2022-12-07T00:21:15;5.70;99.90
6421;DHT22;3243;50.958;7.012;2022-12-07T00:23:44;5.70;99.90
6421;DHT22;3243;50.958;7.012;2022-12-07T00:26:33;5.50;99.90
6421;DHT22;3243;50.958;7.012;2022-12-07T00:29:03;5.50;99.90
6421;DHT22;3243;50.958;7.012;2022-12-07T00:31:33;5.70;99.90
6421;DHT22;3243;50.958;7.012;2022-12-07T00:34:01;5.70;99.90
6421;DHT22;3243;50.958;7.012;2022-12-07T00:36:28;5.70;99.90
6421;DHT22;3243;50.958;7.012;2022-12-07T00:41:24;5.70;99.90
6421;DHT22;3243;50.958;7.012;2022-12-07T00:46:19;5.70;99.90
6421;DHT22;3243;50.958;7.012;2022-12-07T00:51:15;5.80;99.90
6421;DHT22;3243;50.958;7.012;2022-12-07T00:56:15;5.80;99.90
6421;DHT22;3243;50.958;7.012;2022-12-07T00:58:42;5.70;99.90
6421;DHT22;3243;50.958;7.012;2022-12-07T01:01:10;5.80;99.90
6421;DHT22;3243;50.958;7.012;2022-12-07T01:06:05;5.80;99.90
6421;DHT22;3243;50.958;7.012;2022-12-07T01:08:32;5.80;99.90
6421;DHT22;3243;50.958;7.012;2022-12-07T01:11:00;5.80;99.90
6421;DHT22;3243;50.958;7.012;2022-12-07T01:13:27;5.80;99.90
6421;DHT22;3243;50.958;7.012;2022-12-07T01:16:01;5.70;99.90
6421;DHT22;3243;50.958;7.012;2022-12-07T01:18:29;5.80;99.90
6421;DHT22;3243;50.958;7.012;2022-12-07T01:21:09;5.90;99.90
6421;DHT22;3243;50.958;7.012;2022-12-07T01:23:36;5.80;99.90
6421;DHT22;3243;50.958;7.012;2022-12-07T01:26:07;5.60;99.90
6421;DHT22;3243;50.958;7.012;2022-12-07T01:31:10;5.90;99.90
6421;DHT22;3243;50.958;7.012;2022-12-07T01:33:43;5.90;99.90
6421;DHT22;3243;50.958;7.012;2022-12-07T01:36:19;5.80;99.90
6421;DHT22;3243;50.958;7.012;2022-12-07T01:38:48;5.90;99.90
6421;DHT22;3243;50.958;7.012;2022-12-07T01:46:56;5.70;99.90
6421;DHT22;3243;50.958;7.012;2022-12-07T01:49:42;5.80;99.90
6421;DHT22;3243;50.958;7.012;2022-12-07T01:52:23;5.90;99.90
6421;DHT22;3243;50.958;7.012;2022-12-07T01:54:55;5.80;99.90
6421;DHT22;3243;50.958;7.012;2022-12-07T01:57:23;5.90;99.90
6421;DHT22;3243;50.958;7.012;2022-12-07T01:59:51;5.80;99.90
6421;DHT22;3243;50.958;7.012;2022-12-07T02:02:25;5.90;99.90
6421;DHT22;3243;50.958;7.012;2022-12-07T02:04:54;5.70;99.90
6421;DHT22;3243;50.958;7.012;2022-12-07T02:07:23;5.70;99.90
6421;DHT22;3243;50.958;7.012;2022-12-07T02:09:50;5.70;99.90
6421;DHT22;3243;50.958;7.012;2022-12-07T02:14:44;5.70;99.90
6421;DHT22;3243;50.958;7.012;2022-12-07T02:17:23;5.70;99.90
6421;DHT22;3243;50.958;7.012;2022-12-07T02:30:46;5.80;99.90
6421;DHT22;3243;50.958;7.012;2022-12-07T02:33:28;5.80;99.90
6421;DHT22;3243;50.958;7.012;2022-12-07T02:41:47;5.50;99.90
6421;DHT22;3243;50.958;7.012;2022-12-07T02:44:20;5.70;99.90
6421;DHT22;3243;50.958;7.012;2022-12-07T02:46:54;5.50;99.90
6421;DHT22;3243;50.958;7.012;2022-12-07T02:49:25;5.60;99.90
6421;DHT22;3243;50.958;7.012;2022-12-07T02:54:21;5.50;99.90
6421;DHT22;3243;50.958;7.012;2022-12-07T02:56:52;5.70;99.90
6421;DHT22;3243;50.958;7.012;2022-12-07T03:02:38;5.70;99.90
6421;DHT22;3243;50.958;7.012;2022-12-07T03:08:22;5.50;99.90
6421;DHT22;3243;50.958;7.012;2022-12-07T03:11:02;5.60;99.90
6421;DHT22;3243;50.958;7.012;2022-12-07T03:13:54;5.60;99.90
6421;DHT22;3243;50.958;7.012;2022-12-07T03:16:35;5.70;99.90
6421;DHT22;3243;50.958;7.012;2022-12-07T03:19:13;5.70;99.90
6421;DHT22;3243;50.958;7.012;2022-12-07T03:21:44;5.70;99.90
6421;DHT22;3243;50.958;7.012;2022-12-07T03:24:17;5.70;99.90
6421;DHT22;3243;50.958;7.012;2022-12-07T03:26:48;5.70;99.90
6421;DHT22;3243;50.958;7.012;2022-12-07T03:29:27;5.80;99.90
6421;DHT22;3243;50.958;7.012;2022-12-07T03:31:59;5.80;99.90
6421;DHT22;3243;50.958;7.012;2022-12-07T03:35:21;5.70;99.90
6421;DHT22;3243;50.958;7.012;2022-12-07T03:37:56;5.70;99.90
6421;DHT22;3243;50.958;7.012;2022-12-07T03:42:51;5.60;99.90
6421;DHT22;3243;50.958;7.012;2022-12-07T03:45:20;5.70;99.90
6421;DHT22;3243;50.958;7.012;2022-12-07T03:53:37;5.70;99.90
6421;DHT22;3243;50.958;7.012;2022-12-07T03:56:06;5.70;99.90
6421;DHT22;3243;50.958;7.012;2022-12-07T04:01:02;5.60;99.90
6421;DHT22;3243;50.958;7.012;2022-12-07T04:05:56;5.70;99.90
6421;DHT22;3243;50.958;7.012;2022-12-07T04:08:24;5.70;99.90
6421;DHT22;3243;50.958;7.012;2022-12-07T04:18:12;5.70;99.90
6421;DHT22;3243;50.958;7.012;2022-12-07T04:20:39;5.80;99.90
6421;DHT22;3243;50.958;7.012;2022-12-07T04:25:33;5.40;99.90
6421;DHT22;3243;50.958;7.012;2022-12-07T04:35:21;5.60;99.90
6421;DHT22;3243;50.958;7.012;2022-12-07T04:37:47;5.60;99.90
6421;DHT22;3243;50.958;7.012;2022-12-07T04:42:41;5.60;99.90
6421;DHT22;3243;50.958;7.012;2022-12-07T04:45:08;5.70;99.90
6421;DHT22;3243;50.958;7.012;2022-12-07T04:47:35;5.70;99.90
6421;DHT22;3243;50.958;7.012;2022-12-07T04:52:29;5.60;99.90
6421;DHT22;3243;50.958;7.012;2022-12-07T04:54:56;5.60;99.90
6421;DHT22;3243;50.958;7.012;2022-12-07T05:04:44;5.80;99.90
6421;DHT22;3243;50.958;7.012;2022-12-07T05:07:11;5.60;99.90
6421;DHT22;3243;50.958;7.012;2022-12-07T05:12:04;5.70;99.90
6421;DHT22;3243;50.958;7.012;2022-12-07T05:14:34;5.40;99.90
6421;DHT22;3243;50.958;7.012;2022-12-07T05:17:01;5.60;99.90
6421;DHT22;3243;50.958;7.012;2022-12-07T05:26:49;5.60;99.90
6421;DHT22;3243;50.958;7.012;2022-12-07T05:31:44;5.50;99.90
6421;DHT22;3243;50.958;7.012;2022-12-07T05:34:12;5.60;99.90
6421;DHT22;3243;50.958;7.012;2022-12-07T05:39:06;5.70;99.90
6421;DHT22;3243;50.958;7.012;2022-12-07T05:41:33;5.70;99.90
6421;DHT22;3243;50.958;7.012;2022-12-07T05:46:46;5.70;99.90
6421;DHT22;3243;50.958;7.012;2022-12-07T05:49:12;5.50;99.90
6421;DHT22;3243;50.958;7.012;2022-12-07T05:54:06;5.70;99.90
6421;DHT22;3243;50.958;7.012;2022-12-07T05:56:33;5.40;99.90
6421;DHT22;3243;50.958;7.012;2022-12-07T05:59:00;5.50;99.90
6421;DHT22;3243;50.958;7.012;2022-12-07T06:01:45;5.50;99.90
6421;DHT22;3243;50.958;7.012;2022-12-07T06:04:12;5.40;99.90
6421;DHT22;3243;50.958;7.012;2022-12-07T06:06:39;5.40;99.90
6421;DHT22;3243;50.958;7.012;2022-12-07T06:09:05;5.40;99.90
6421;DHT22;3243;50.958;7.012;2022-12-07T06:11:32;5.20;99.90
6421;DHT22;3243;50.958;7.012;2022-12-07T06:19:12;5.20;99.90
6421;DHT22;3243;50.958;7.012;2022-12-07T06:21:39;5.20;99.90
6421;DHT22;3243;50.958;7.012;2022-12-07T06:26:33;5.30;99.90
6421;DHT22;3243;50.958;7.012;2022-12-07T06:31:27;5.20;99.90
6421;DHT22;3243;50.958;7.012;2022-12-07T06:34:15;5.00;99.90
6421;DHT22;3243;50.958;7.012;2022-12-07T06:36:42;5.20;99.90
6421;DHT22;3243;50.958;7.012;2022-12-07T06:39:10;4.90;99.90
6421;DHT22;3243;50.958;7.012;2022-12-07T06:41:37;5.20;99.90
6421;DHT22;3243;50.958;7.012;2022-12-07T06:44:05;5.20;99.90
6421;DHT22;3243;50.958;7.012;2022-12-07T06:51:26;5.00;99.90
6421;DHT22;3243;50.958;7.012;2022-12-07T06:56:20;4.90;99.90
6421;DHT22;3243;50.958;7.012;2022-12-07T06:58:47;5.00;99.90
6421;DHT22;3243;50.958;7.012;2022-12-07T07:01:16;5.00;99.90
6421;DHT22;3243;50.958;7.012;2022-12-07T07:03:44;5.10;99.90
6421;DHT22;3243;50.958;7.012;2022-12-07T07:06:12;5.30;99.90
6421;DHT22;3243;50.958;7.012;2022-12-07T07:11:07;5.20;99.90
6421;DHT22;3243;50.958;7.012;2022-12-07T07:23:23;5.30;99.90
6421;DHT22;3243;50.958;7.012;2022-12-07T07:25:50;5.30;99.90
6421;DHT22;3243;50.958;7.012;2022-12-07T07:28:17;5.30;99.90
6421;DHT22;3243;50.958;7.012;2022-12-07T07:30:44;5.40;99.90
6421;DHT22;3243;50.958;7.012;2022-12-07T07:35:38;5.20;99.90
6421;DHT22;3243;50.958;7.012;2022-12-07T07:38:06;5.00;99.90
6421;DHT22;3243;50.958;7.012;2022-12-07T07:40:33;5.10;99.90
6421;DHT22;3243;50.958;7.012;2022-12-07T07:43:00;5.30;99.90
6421;DHT22;3243;50.958;7.012;2022-12-07T07:45:28;5.30;99.90
6421;DHT22;3243;50.958;7.012;2022-12-07T07:47:55;5.40;99.90
6421;DHT22;3243;50.958;7.012;2022-12-07T08:02:45;5.70;99.90
6421;DHT22;3243;50.958;7.012;2022-12-07T08:05:13;5.60;99.90
6421;DHT22;3243;50.958;7.012;2022-12-07T08:07:40;5.60;99.90
6421;DHT22;3243;50.958;7.012;2022-12-07T08:10:09;5.60;99.90
6421;DHT22;3243;50.958;7.012;2022-12-07T08:12:41;5.70;99.90
6421;DHT22;3243;50.958;7.012;2022-12-07T08:15:28;5.60;99.90
6421;DHT22;3243;50.958;7.012;2022-12-07T08:17:55;5.70;99.90
6421;DHT22;3243;50.958;7.012;2022-12-07T08:20:22;5.60;99.90
6421;DHT22;3243;50.958;7.012;2022-12-07T08:25:16;5.60;99.90
6421;DHT22;3243;50.958;7.012;2022-12-07T08:27:42;5.60;99.90
6421;DHT22;3243;50.958;7.012;2022-12-07T08:37:31;5.70;99.90
6421;DHT22;3243;50.958;7.012;2022-12-07T08:39:58;5.70;99.90
6421;DHT22;3243;50.958;7.012;2022-12-07T08:42:25;5.80;99.90
6421;DHT22;3243;50.958;7.012;2022-12-07T08:44:56;5.80;99.90
6421;DHT22;3243;50.958;7.012;2022-12-07T08:47:24;5.70;99.90
6421;DHT22;3243;50.958;7.012;2022-12-07T08:49:52;5.70;99.90
6421;DHT22;3243;50.958;7.012;2022-12-07T08:52:20;5.80;99.90
6421;DHT22;3243;50.958;7.012;2022-12-07T08:57:15;6.00;99.90
6421;DHT22;3243;50.958;7.012;2022-12-07T08:59:42;6.10;99.90
6421;DHT22;3243;50.958;7.012;2022-12-07T09:02:09;6.10;99.90
6421;DHT22;3243;50.958;7.012;2022-12-07T09:04:36;6.00;99.90
6421;DHT22;3243;50.958;7.012;2022-12-07T09:07:03;6.10;99.90
6421;DHT22;3243;50.958;7.012;2022-12-07T09:09:30;6.10;99.90
6421;DHT22;3243;50.958;7.012;2022-12-07T09:11:57;6.20;99.90
6421;DHT22;3243;50.958;7.012;2022-12-07T09:19:18;6.20;99.90
6421;DHT22;3243;50.958;7.012;2022-12-07T09:21:45;6.30;99.90
6421;DHT22;3243;50.958;7.012;2022-12-07T09:24:15;6.20;99.90
6421;DHT22;3243;50.958;7.012;2022-12-07T09:31:36;6.40;99.90
6421;DHT22;3243;50.958;7.012;2022-12-07T09:34:06;6.40;99.90
6421;DHT22;3243;50.958;7.012;2022-12-07T09:36:33;6.50;99.90
6421;DHT22;3243;50.958;7.012;2022-12-07T09:39:00;6.40;99.90
6421;DHT22;3243;50.958;7.012;2022-12-07T09:41:29;6.50;99.90
6421;DHT22;3243;50.958;7.012;2022-12-07T09:44:05;6.50;99.90
6421;DHT22;3243;50.958;7.012;2022-12-07T09:46:36;6.50;99.90
6421;DHT22;3243;50.958;7.012;2022-12-07T09:49:05;6.50;99.90
6421;DHT22;3243;50.958;7.012;2022-12-07T09:56:30;6.80;99.90
6421;DHT22;3243;50.958;7.012;2022-12-07T09:59:02;7.00;99.90
6421;DHT22;3243;50.958;7.012;2022-12-07T10:01:33;7.00;99.90
6421;DHT22;3243;50.958;7.012;2022-12-07T10:13:55;7.30;99.90
6421;DHT22;3243;50.958;7.012;2022-12-07T10:18:52;7.10;99.90
6421;DHT22;3243;50.958;7.012;2022-12-07T10:21:26;7.10;99.90
6421;DHT22;3243;50.958;7.012;2022-12-07T10:24:13;7.00;99.90
6421;DHT22;3243;50.958;7.012;2022-12-07T10:31:48;6.90;99.90
6421;DHT22;3243;50.958;7.012;2022-12-07T10:36:53;7.30;99.90
6421;DHT22;3243;50.958;7.012;2022-12-07T10:39:50;7.50;99.90
6421;DHT22;3243;50.958;7.012;2022-12-07T10:44:48;7.20;99.90
6421;DHT22;3243;50.958;7.012;2022-12-07T10:47:30;7.10;99.90
6421;DHT22;3243;50.958;7.012;2022-12-07T10:56:29;7.30;99.90
6421;DHT22;3243;50.958;7.012;2022-12-07T10:59:29;7.20;99.90
6421;DHT22;3243;50.958;7.012;2022-12-07T11:02:25;7.20;99.90
6421;DHT22;3243;50.958;7.012;2022-12-07T11:08:00;7.20;99.90
6421;DHT22;3243;50.958;7.012;2022-12-07T11:11:02;7.20;99.90
6421;DHT22;3243;50.958;7.012;2022-12-07T11:24:07;7.30;99.90
6421;DHT22;3243;50.958;7.012;2022-12-07T11:29:25;7.30;99.90
6421;DHT22;3243;50.958;7.012;2022-12-07T11:34:58;7.60;99.90
6421;DHT22;3243;50.958;7.012;2022-12-07T11:37:32;7.50;99.90
6421;DHT22;3243;50.958;7.012;2022-12-07T11:40:30;7.60;99.90
6421;DHT22;3243;50.958;7.012;2022-12-07T11:43:11;7.80;99.90
6421;DHT22;3243;50.958;7.012;2022-12-07T11:45:46;7.80;99.90
6421;DHT22;3243;50.958;7.012;2022-12-07T11:48:34;8.00;99.90
6421;DHT22;3243;50.958;7.012;2022-12-07T11:51:02;8.20;99.90
6421;DHT22;3243;50.958;7.012;2022-12-07T11:53:33;8.20;99.90
6421;DHT22;3243;50.958;7.012;2022-12-07T11:56:13;8.10;1.00
6421;DHT22;3243;50.958;7.012;2022-12-07T11:58:55;8.00;1.00
6421;DHT22;3243;50.958;7.012;2022-12-07T12:06:37;8.00;1.00
6421;DHT22;3243;50.958;7.012;2022-12-07T12:09:06;8.10;1.00
6421;DHT22;3243;50.958;7.012;2022-12-07T12:12:24;8.10;1.00
6421;DHT22;3243;50.958;7.012;2022-12-07T12:15:41;8.00;99.90
6421;DHT22;3243;50.958;7.012;2022-12-07T12:21:12;7.80;1.00
6421;DHT22;3243;50.958;7.012;2022-12-07T12:24:18;7.80;1.00
6421;DHT22;3243;50.958;7.012;2022-12-07T12:27:02;7.80;1.00
6421;DHT22;3243;50.958;7.012;2022-12-07T12:29:37;7.80;1.00
6421;DHT22;3243;50.958;7.012;2022-12-07T12:32:17;7.90;1.00
6421;DHT22;3243;50.958;7.012;2022-12-07T12:45:29;7.80;1.00
6421;DHT22;3243;50.958;7.012;2022-12-07T12:48:03;7.70;1.00
6421;DHT22;3243;50.958;7.012;2022-12-07T12:50:35;7.60;1.00
6421;DHT22;3243;50.958;7.012;2022-12-07T12:53:25;7.50;1.00
6421;DHT22;3243;50.958;7.012;2022-12-07T12:58:38;7.40;1.00
6421;DHT22;3243;50.958;7.012;2022-12-07T13:03:55;7.20;1.00
6421;DHT22;3243;50.958;7.012;2022-12-07T13:08:55;6.80;1.00
6421;DHT22;3243;50.958;7.012;2022-12-07T13:11:33;7.20;1.00
6421;DHT22;3243;50.958;7.012;2022-12-07T13:17:02;7.00;1.00
6421;DHT22;3243;50.958;7.012;2022-12-07T13:25:12;7.10;1.00
6421;DHT22;3243;50.958;7.012;2022-12-07T13:28:00;7.30;1.00
6421;DHT22;3243;50.958;7.012;2022-12-07T13:30:29;7.40;1.00
6421;DHT22;3243;50.958;7.012;2022-12-07T13:32:58;7.30;1.00
6421;DHT22;3243;50.958;7.012;2022-12-07T13:40:25;7.20;1.00
6421;DHT22;3243;50.958;7.012;2022-12-07T13:43:00;7.20;1.00
6421;DHT22;3243;50.958;7.012;2022-12-07T13:45:30;7.30;1.00
6421;DHT22;3243;50.958;7.012;2022-12-07T13:50:56;7.40;1.00
6421;DHT22;3243;50.958;7.012;2022-12-07T13:55:57;7.30;1.00
6421;DHT22;3243;50.958;7.012;2022-12-07T13:58:25;7.50;1.00
6421;DHT22;3243;50.958;7.012;2022-12-07T14:03:28;7.40;1.00
6421;DHT22;3243;50.958;7.012;2022-12-07T14:08:32;7.10;1.00
6421;DHT22;3243;50.958;7.012;2022-12-07T14:10:59;6.90;1.00
6421;DHT22;3243;50.958;7.012;2022-12-07T14:13:52;7.10;1.00
6421;DHT22;3243;50.958;7.012;2022-12-07T14:18:52;7.10;1.00
6421;DHT22;3243;50.958;7.012;2022-12-07T14:21:22;7.10;1.00
6421;DHT22;3243;50.958;7.012;2022-12-07T14:26:40;7.00;1.00
6421;DHT22;3243;50.958;7.012;2022-12-07T14:31:53;6.90;1.00
6421;DHT22;3243;50.958;7.012;2022-12-07T14:34:21;6.90;1.00
6421;DHT22;3243;50.958;7.012;2022-12-07T14:36:48;6.90;1.00
6421;DHT22;3243;50.958;7.012;2022-12-07T14:39:15;6.90;1.00
6421;DHT22;3243;50.958;7.012;2022-12-07T14:44:19;6.80;1.00
6421;DHT22;3243;50.958;7.012;2022-12-07T14:46:51;6.80;1.00
6421;DHT22;3243;50.958;7.012;2022-12-07T14:49:37;6.70;1.00
6421;DHT22;3243;50.958;7.012;2022-12-07T14:52:05;6.70;2.00
6421;DHT22;3243;50.958;7.012;2022-12-07T14:54:57;6.70;26.20
6421;DHT22;3243;50.958;7.012;2022-12-07T14:57:23;6.70;99.90
6421;DHT22;3243;50.958;7.012;2022-12-07T15:02:17;6.60;99.90
6421;DHT22;3243;50.958;7.012;2022-12-07T15:07:21;6.50;99.90
6421;DHT22;3243;50.958;7.012;2022-12-07T15:09:48;6.30;99.90
6421;DHT22;3243;50.958;7.012;2022-12-07T15:17:11;6.50;99.90
6421;DHT22;3243;50.958;7.012;2022-12-07T15:22:22;6.60;99.90
6421;DHT22;3243;50.958;7.012;2022-12-07T15:24:49;6.50;99.90
6421;DHT22;3243;50.958;7.012;2022-12-07T15:29:43;6.50;99.90
6421;DHT22;3243;50.958;7.012;2022-12-07T15:34:37;6.40;1.00
6421;DHT22;3243;50.958;7.012;2022-12-07T15:37:07;6.20;1.00
6421;DHT22;3243;50.958;7.012;2022-12-07T15:49:42;5.80;1.00
6421;DHT22;3243;50.958;7.012;2022-12-07T15:52:09;5.80;1.00
6421;DHT22;3243;50.958;7.012;2022-12-07T15:59:30;5.60;1.00
6421;DHT22;3243;50.958;7.012;2022-12-07T16:01:56;5.30;99.90
6421;DHT22;3243;50.958;7.012;2022-12-07T16:04:23;5.30;99.90
6421;DHT22;3243;50.958;7.012;2022-12-07T16:09:18;5.20;99.90
6421;DHT22;3243;50.958;7.012;2022-12-07T16:11:44;5.20;99.90
6421;DHT22;3243;50.958;7.012;2022-12-07T16:21:37;5.20;1.00
6421;DHT22;3243;50.958;7.012;2022-12-07T16:26:31;5.30;99.90
6421;DHT22;3243;50.958;7.012;2022-12-07T16:28:58;5.20;99.90
6421;DHT22;3243;50.958;7.012;2022-12-07T16:31:26;5.00;99.90
6421;DHT22;3243;50.958;7.012;2022-12-07T16:33:55;5.30;99.90
6421;DHT22;3243;50.958;7.012;2022-12-07T16:39:10;5.40;99.90
6421;DHT22;3243;50.958;7.012;2022-12-07T16:41:37;5.30;1.00
6421;DHT22;3243;50.958;7.012;2022-12-07T16:44:06;5.40;1.00
6421;DHT22;3243;50.958;7.012;2022-12-07T16:46:34;5.50;1.00
6421;DHT22;3243;50.958;7.012;2022-12-07T16:49:03;5.50;1.00
6421;DHT22;3243;50.958;7.012;2022-12-07T16:56:24;5.60;99.90
6421;DHT22;3243;50.958;7.012;2022-12-07T16:58:52;5.70;90.50
6421;DHT22;3243;50.958;7.012;2022-12-07T17:01:21;5.50;99.90
6421;DHT22;3243;50.958;7.012;2022-12-07T17:06:22;5.50;1.00
6421;DHT22;3243;50.958;7.012;2022-12-07T17:08:50;5.60;2.20
6421;DHT22;3243;50.958;7.012;2022-12-07T17:11:23;5.60;1.00
6421;DHT22;3243;50.958;7.012;2022-12-07T17:13:50;5.60;99.90
6421;DHT22;3243;50.958;7.012;2022-12-07T17:16:36;6.70;16.20
6421;DHT22;3243;50.958;7.012;2022-12-07T17:19:08;5.60;99.90
6421;DHT22;3243;50.958;7.012;2022-12-07T17:24:04;5.50;99.90
6421;DHT22;3243;50.958;7.012;2022-12-07T17:26:31;5.60;1.00
6421;DHT22;3243;50.958;7.012;2022-12-07T17:29:02;5.60;1.00
6421;DHT22;3243;50.958;7.012;2022-12-07T17:36:26;5.70;1.00
6421;DHT22;3243;50.958;7.012;2022-12-07T17:38:54;5.60;99.90
6421;DHT22;3243;50.958;7.012;2022-12-07T17:41:23;5.70;99.90
6421;DHT22;3243;50.958;7.012;2022-12-07T17:44:14;5.60;1.00
6421;DHT22;3243;50.958;7.012;2022-12-07T17:46:42;5.70;1.00
6421;DHT22;3243;50.958;7.012;2022-12-07T17:49:09;5.70;99.90
6421;DHT22;3243;50.958;7.012;2022-12-07T17:56:48;5.70;99.90
6421;DHT22;3243;50.958;7.012;2022-12-07T18:01:44;5.70;99.90
6421;DHT22;3243;50.958;7.012;2022-12-07T18:04:11;5.60;99.90
6421;DHT22;3243;50.958;7.012;2022-12-07T18:09:05;5.80;1.00
6421;DHT22;3243;50.958;7.012;2022-12-07T18:16:28;5.80;99.90
6421;DHT22;3243;50.958;7.012;2022-12-07T18:19:00;5.80;1.00
6421;DHT22;3243;50.958;7.012;2022-12-07T18:21:28;5.80;99.90
6421;DHT22;3243;50.958;7.012;2022-12-07T18:23:58;6.00;1.00
6421;DHT22;3243;50.958;7.012;2022-12-07T18:26:28;5.90;99.90
6421;DHT22;3243;50.958;7.012;2022-12-07T18:28:58;5.70;99.90
6421;DHT22;3243;50.958;7.012;2022-12-07T18:31:25;5.80;1.00
6421;DHT22;3243;50.958;7.012;2022-12-07T18:36:22;5.60;99.90
6421;DHT22;3243;50.958;7.012;2022-12-07T18:38:50;5.80;99.90
6421;DHT22;3243;50.958;7.012;2022-12-07T18:41:17;5.80;1.00
6421;DHT22;3243;50.958;7.012;2022-12-07T18:43:44;5.70;99.90
6421;DHT22;3243;50.958;7.012;2022-12-07T18:46:18;5.90;99.90
6421;DHT22;3243;50.958;7.012;2022-12-07T18:48:48;5.90;1.00
6421;DHT22;3243;50.958;7.012;2022-12-07T18:51:18;6.00;99.90
6421;DHT22;3243;50.958;7.012;2022-12-07T18:56:18;5.90;1.00
6421;DHT22;3243;50.958;7.012;2022-12-07T18:58:50;5.90;99.90
6421;DHT22;3243;50.958;7.012;2022-12-07T19:01:35;5.90;99.90
6421;DHT22;3243;50.958;7.012;2022-12-07T19:04:03;5.90;99.90
6421;DHT22;3243;50.958;7.012;2022-12-07T19:08:57;6.10;99.90
6421;DHT22;3243;50.958;7.012;2022-12-07T19:11:26;6.00;99.90
6421;DHT22;3243;50.958;7.012;2022-12-07T19:14:13;5.90;99.90
6421;DHT22;3243;50.958;7.012;2022-12-07T19:16:42;5.90;1.00
6421;DHT22;3243;50.958;7.012;2022-12-07T19:21:36;5.90;1.00
6421;DHT22;3243;50.958;7.012;2022-12-07T19:24:04;6.00;1.00
6421;DHT22;3243;50.958;7.012;2022-12-07T19:33:52;5.90;99.90
6421;DHT22;3243;50.958;7.012;2022-12-07T19:46:31;5.70;1.00
6421;DHT22;3243;50.958;7.012;2022-12-07T19:48:58;5.90;99.90
6421;DHT22;3243;50.958;7.012;2022-12-07T19:51:26;5.80;99.90
6421;DHT22;3243;50.958;7.012;2022-12-07T19:54:01;5.80;99.90
6421;DHT22;3243;50.958;7.012;2022-12-07T19:56:29;5.80;99.90
6421;DHT22;3243;50.958;7.012;2022-12-07T19:58:58;5.80;21.20
6421;DHT22;3243;50.958;7.012;2022-12-07T20:01:25;5.80;99.90
6421;DHT22;3243;50.958;7.012;2022-12-07T20:03:53;5.80;1.00
6421;DHT22;3243;50.958;7.012;2022-12-07T20:06:20;5.70;1.00
6421;DHT22;3243;50.958;7.012;2022-12-07T20:08:47;5.90;1.00
6421;DHT22;3243;50.958;7.012;2022-12-07T20:11:16;5.70;99.90
6421;DHT22;3243;50.958;7.012;2022-12-07T20:26:19;5.50;1.00
6421;DHT22;3243;50.958;7.012;2022-12-07T20:28:46;5.40;1.00
6421;DHT22;3243;50.958;7.012;2022-12-07T20:31:13;5.80;99.90
6421;DHT22;3243;50.958;7.012;2022-12-07T20:33:42;5.20;1.00
6421;DHT22;3243;50.958;7.012;2022-12-07T20:36:15;5.20;1.00
6421;DHT22;3243;50.958;7.012;2022-12-07T20:38:43;5.10;99.90
6421;DHT22;3243;50.958;7.012;2022-12-07T20:41:12;5.20;1.00
6421;DHT22;3243;50.958;7.012;2022-12-07T20:43:58;5.20;99.90
6421;DHT22;3243;50.958;7.012;2022-12-07T20:46:25;5.20;99.90
6421;DHT22;3243;50.958;7.012;2022-12-07T20:48:52;5.00;99.90
6421;DHT22;3243;50.958;7.012;2022-12-07T20:51:19;5.20;99.90
6421;DHT22;3243;50.958;7.012;2022-12-07T20:56:32;5.10;99.90
6421;DHT22;3243;50.958;7.012;2022-12-07T20:59:04;5.20;99.90
6421;DHT22;3243;50.958;7.012;2022-12-07T21:01:31;5.20;99.90
6421;DHT22;3243;50.958;7.012;2022-12-07T21:03:59;5.20;99.90
6421;DHT22;3243;50.958;7.012;2022-12-07T21:06:27;5.20;99.90
6421;DHT22;3243;50.958;7.012;2022-12-07T21:08:58;5.20;99.90
6421;DHT22;3243;50.958;7.012;2022-12-07T21:11:27;5.20;99.90
6421;DHT22;3243;50.958;7.012;2022-12-07T21:16:24;5.10;99.90
6421;DHT22;3243;50.958;7.012;2022-12-07T21:18:53;5.20;99.90
6421;DHT22;3243;50.958;7.012;2022-12-07T21:21:20;5.30;99.90
6421;DHT22;3243;50.958;7.012;2022-12-07T21:23:49;5.30;99.90
6421;DHT22;3243;50.958;7.012;2022-12-07T21:26:19;5.20;99.90
6421;DHT22;3243;50.958;7.012;2022-12-07T21:28:47;5.30;99.90
6421;DHT22;3243;50.958;7.012;2022-12-07T21:31:15;5.30;99.90
6421;DHT22;3243;50.958;7.012;2022-12-07T21:33:42;5.30;99.90
6421;DHT22;3243;50.958;7.012;2022-12-07T21:36:13;5.40;99.90
6421;DHT22;3243;50.958;7.012;2022-12-07T21:38:41;5.50;99.90
6421;DHT22;3243;50.958;7.012;2022-12-07T21:41:23;5.40;1.00
6421;DHT22;3243;50.958;7.012;2022-12-07T21:46:18;5.40;99.90
6421;DHT22;3243;50.958;7.012;2022-12-07T21:48:53;5.40;1.00
6421;DHT22;3243;50.958;7.012;2022-12-07T21:51:22;5.30;90.80
6421;DHT22;3243;50.958;7.012;2022-12-07T21:53:50;5.30;1.00
6421;DHT22;3243;50.958;7.012;2022-12-07T21:56:32;5.30;1.00
6421;DHT22;3243;50.958;7.012;2022-12-07T21:59:05;5.20;99.90
6421;DHT22;3243;50.958;7.012;2022-12-07T22:01:34;5.30;99.90
6421;DHT22;3243;50.958;7.012;2022-12-07T22:04:08;5.30;99.90
6421;DHT22;3243;50.958;7.012;2022-12-07T22:06:35;5.20;1.00
6421;DHT22;3243;50.958;7.012;2022-12-07T22:09:03;5.50;1.00
6421;DHT22;3243;50.958;7.012;2022-12-07T22:11:31;5.20;99.90
6421;DHT22;3243;50.958;7.012;2022-12-07T22:13:58;5.10;99.90
6421;DHT22;3243;50.958;7.012;2022-12-07T22:19:10;5.30;1.00
6421;DHT22;3243;50.958;7.012;2022-12-07T22:24:04;5.20;99.90
6421;DHT22;3243;50.958;7.012;2022-12-07T22:26:32;5.10;99.90
6421;DHT22;3243;50.958;7.012;2022-12-07T22:29:00;5.20;1.00
6421;DHT22;3243;50.958;7.012;2022-12-07T22:31:27;5.00;99.90
6421;DHT22;3243;50.958;7.012;2022-12-07T22:41:23;4.90;99.90
6421;DHT22;3243;50.958;7.012;2022-12-07T22:46:17;5.20;99.90
6421;DHT22;3243;50.958;7.012;2022-12-07T23:01:09;5.10;1.00
6421;DHT22;3243;50.958;7.012;2022-12-07T23:03:36;5.10;1.00
6421;DHT22;3243;50.958;7.012;2022-12-07T23:06:13;4.90;99.90
6421;DHT22;3243;50.958;7.012;2022-12-07T23:08:40;5.20;1.00
6421;DHT22;3243;50.958;7.012;2022-12-07T23:11:08;5.20;1.00
6421;DHT22;3243;50.958;7.012;2022-12-07T23:16:12;5.10;1.00
6421;DHT22;3243;50.958;7.012;2022-12-07T23:18:40;5.20;99.90
6421;DHT22;3243;50.958;7.012;2022-12-07T23:23:34;5.20;1.00
6421;DHT22;3243;50.958;7.012;2022-12-07T23:26:06;5.20;1.00
6421;DHT22;3243;50.958;7.012;2022-12-07T23:28:33;5.30;99.90
6421;DHT22;3243;50.958;7.012;2022-12-07T23:33:47;5.30;1.00
6421;DHT22;3243;50.958;7.012;2022-12-07T23:38:47;5.40;99.90
6421;DHT22;3243;50.958;7.012;2022-12-07T23:41:20;5.40;1.00
6421;DHT22;3243;50.958;7.012;2022-12-07T23:43:47;5.50;1.00
6421;DHT22;3243;50.958;7.012;2022-12-07T23:46:17;5.40;1.00
6421;DHT22;3243;50.958;7.012;2022-12-07T23:51:11;5.40;1.00
6421;DHT22;3243;50.958;7.012;2022-12-07T23:56:11;5.30;99.90
